createdAt,value
2018-07-23T00:02:36.821Z,96934.69
2018-07-23T00:07:31.325Z,96934.13
2018-07-23T00:12:25.829Z,96928.06
2018-07-23T00:17:20.347Z,96932.31
2018-07-23T00:22:14.783Z,96934.96
2018-07-23T00:27:09.435Z,96932.30
2018-07-23T00:32:03.990Z,96929.91
2018-07-23T00:36:58.511Z,96928.05
2018-07-23T00:41:53.037Z,96923.52
2018-07-23T00:46:47.554Z,96921.13
2018-07-23T00:51:42.128Z,96915.83
2018-07-23T00:56:36.607Z,96913.46
2018-07-23T01:01:31.086Z,96908.93
2018-07-23T01:06:25.593Z,96910.77
2018-07-23T01:11:20.149Z,96905.20
2018-07-23T01:16:14.695Z,96902.80
2018-07-23T01:21:09.279Z,96898.58
2018-07-23T01:26:03.801Z,96896.75
2018-07-23T01:30:58.304Z,96895.38
2018-07-23T01:35:52.798Z,96895.12
2018-07-23T01:40:47.308Z,96907.86
2018-07-23T01:45:41.821Z,96906.00
2018-07-23T01:50:36.320Z,96905.48
2018-07-23T01:55:31.788Z,96903.62
2018-07-23T02:00:26.370Z,96907.58
2018-07-23T02:05:20.889Z,96907.61
2018-07-23T02:10:15.412Z,96908.11
2018-07-23T02:15:09.934Z,96911.31
2018-07-23T02:20:05.074Z,96910.53
2018-07-23T02:24:59.668Z,96906.81
2018-07-23T02:29:54.125Z,96904.42
2018-07-23T02:34:48.681Z,96910.25
2018-07-23T02:39:43.197Z,96905.75
2018-07-23T02:44:37.729Z,96905.20
2018-07-23T02:49:32.246Z,96903.89
2018-07-23T02:54:26.783Z,96904.67
2018-07-23T02:59:21.973Z,96899.09
2018-07-23T03:04:16.506Z,96902.56
2018-07-23T03:09:11.044Z,96910.25
2018-07-23T03:14:05.638Z,96920.33
2018-07-23T03:19:00.149Z,96923.52
2018-07-23T03:23:54.661Z,96922.20
2018-07-23T03:28:49.324Z,96929.62
2018-07-23T03:33:43.946Z,96928.29
2018-07-23T03:38:38.440Z,96941.80
2018-07-23T03:43:32.929Z,96949.68
2018-07-23T03:48:27.508Z,96955.77
2018-07-23T03:53:22.020Z,96960.06
2018-07-23T03:58:16.661Z,96959.84
2018-07-23T04:03:11.253Z,96962.27
2018-07-23T04:08:05.913Z,96958.83
2018-07-23T04:13:00.437Z,96967.33
2018-07-23T04:18:01.806Z,96971.04
2018-07-23T04:22:56.086Z,96974.23
2018-07-23T04:27:50.641Z,96978.23
2018-07-23T04:32:45.209Z,96987.00
2018-07-23T04:37:39.768Z,96988.05
2018-07-23T04:42:34.317Z,96996.28
2018-07-23T04:47:28.945Z,96989.67
2018-07-23T04:52:23.481Z,96992.84
2018-07-23T04:57:18.096Z,96989.11
2018-07-23T05:02:12.720Z,96994.12
2018-07-23T05:07:07.344Z,96992.27
2018-07-23T05:12:01.953Z,96995.70
2018-07-23T05:16:56.540Z,96997.31
2018-07-23T05:21:51.129Z,96997.03
2018-07-23T05:26:45.710Z,96987.94
2018-07-23T05:31:40.291Z,96986.58
2018-07-23T05:36:34.723Z,96987.48
2018-07-23T05:41:29.156Z,96989.61
2018-07-23T05:46:23.597Z,96998.42
2018-07-23T05:51:18.145Z,97006.39
2018-07-23T05:56:12.581Z,97004.02
2018-07-23T06:01:07.101Z,96996.58
2018-07-23T06:06:01.589Z,97005.59
2018-07-23T06:10:56.033Z,97003.09
2018-07-23T06:15:50.497Z,97004.41
2018-07-23T06:20:44.964Z,97015.13
2018-07-23T06:25:39.470Z,97013.34
2018-07-23T06:30:33.957Z,97016.53
2018-07-23T06:35:28.484Z,97025.56
2018-07-23T06:40:22.995Z,97033.62
2018-07-23T06:45:17.521Z,97036.00
2018-07-23T06:50:12.449Z,97034.06
2018-07-23T06:55:06.640Z,97043.27
2018-07-23T07:00:01.106Z,97042.34
2018-07-23T07:04:55.766Z,97041.89
2018-07-23T07:09:50.043Z,97046.16
2018-07-23T07:14:44.754Z,97049.05
2018-07-23T07:19:39.647Z,97055.12
2018-07-23T07:24:35.285Z,97056.03
2018-07-23T07:29:30.097Z,97055.42
2018-07-23T07:34:24.794Z,97050.50
2018-07-23T07:39:19.405Z,97057.15
2018-07-23T07:44:13.922Z,97061.78
2018-07-23T07:49:08.945Z,97058.66
2018-07-23T07:54:04.914Z,97067.03
2018-07-23T07:58:59.557Z,97063.53
2018-07-23T08:03:53.991Z,97058.06
2018-07-23T08:08:48.511Z,97063.88
2018-07-23T08:13:43.081Z,97062.17
2018-07-23T08:18:37.669Z,97071.75
2018-07-23T08:23:32.323Z,97071.79
2018-07-23T08:28:26.909Z,97076.25
2018-07-23T08:33:21.715Z,97086.19
2018-07-23T08:38:16.213Z,97088.39
2018-07-23T08:43:10.797Z,97091.22
2018-07-23T08:48:05.272Z,97092.70
2018-07-23T08:53:00.538Z,97089.56
2018-07-23T08:57:56.285Z,97094.72
2018-07-23T09:02:50.944Z,97098.25
2018-07-23T09:07:48.956Z,97096.80
2018-07-23T09:12:43.432Z,97105.02
2018-07-23T09:17:38.321Z,97103.77
2018-07-23T09:22:33.475Z,97109.03
2018-07-23T09:27:28.065Z,97107.61
2018-07-23T09:32:22.495Z,97113.05
2018-07-23T09:37:18.508Z,97107.27
2018-07-23T09:42:13.077Z,97101.33
2018-07-23T09:47:08.648Z,97100.89
2018-07-23T09:52:03.251Z,97114.06
2018-07-23T09:56:57.518Z,97106.37
2018-07-23T10:01:51.983Z,97100.97
2018-07-23T10:06:47.312Z,97094.63
2018-07-23T10:11:41.753Z,97094.42
2018-07-23T10:16:36.452Z,97096.81
2018-07-23T10:21:31.000Z,97085.30
2018-07-23T10:26:25.781Z,97077.08
2018-07-23T10:31:22.482Z,97076.38
2018-07-23T10:36:16.937Z,97077.16
2018-07-23T10:41:11.588Z,97082.34
2018-07-23T10:46:06.551Z,97085.28
2018-07-23T10:51:01.447Z,97075.10
2018-07-23T10:55:55.920Z,97076.13
2018-07-23T11:00:50.407Z,97077.23
2018-07-23T11:05:44.889Z,97076.38
2018-07-23T11:10:39.969Z,97078.42
2018-07-23T11:15:34.522Z,97079.21
2018-07-23T11:20:28.707Z,97077.05
2018-07-23T11:25:38.979Z,97070.00
2018-07-23T11:30:24.917Z,97071.95
2018-07-23T11:35:19.377Z,97074.98
2018-07-23T11:40:15.242Z,97063.47
2018-07-23T11:45:09.788Z,97058.20
2018-07-23T11:50:04.292Z,97056.73
2018-07-23T11:54:58.726Z,97051.73
2018-07-23T11:59:53.237Z,97051.70
2018-07-23T12:04:48.586Z,97047.67
2018-07-23T12:09:45.318Z,97036.28
2018-07-23T12:14:40.461Z,97041.49
2018-07-23T12:19:34.926Z,97034.70
2018-07-23T12:24:29.745Z,97021.36
2018-07-23T12:29:25.194Z,97024.83
2018-07-23T12:34:19.788Z,97017.73
2018-07-23T12:39:14.288Z,97034.47
2018-07-23T12:44:08.842Z,97033.67
2018-07-23T12:49:03.329Z,97027.48
2018-07-23T12:53:57.775Z,97026.16
2018-07-23T12:58:52.232Z,97018.20
2018-07-23T13:03:46.360Z,97021.73
2018-07-23T13:08:41.005Z,97024.97
2018-07-23T13:13:35.510Z,97029.86
2018-07-23T13:18:30.052Z,97028.00
2018-07-23T13:23:24.512Z,97030.94
2018-07-23T13:28:19.049Z,97023.02
2018-07-23T13:33:13.497Z,97031.97
2018-07-23T13:38:08.015Z,97035.98
2018-07-23T13:43:02.510Z,97027.97
2018-07-23T13:47:56.980Z,97025.59
2018-07-23T13:52:51.454Z,97022.34
2018-07-23T13:57:45.917Z,97013.03
2018-07-23T14:02:40.425Z,97012.75
2018-07-23T14:07:34.893Z,97004.72
2018-07-23T14:12:29.329Z,97006.02
2018-07-23T14:17:23.900Z,97004.72
2018-07-23T14:22:18.977Z,96995.92
2018-07-23T14:27:13.481Z,96995.88
2018-07-23T14:32:07.992Z,96992.34
2018-07-23T14:37:02.436Z,96990.67
2018-07-23T14:41:57.288Z,96978.95
2018-07-23T14:46:51.767Z,96970.55
2018-07-23T14:51:46.298Z,96971.66
2018-07-23T14:56:40.736Z,96965.58
2018-07-23T15:01:35.047Z,96962.66
2018-07-23T15:06:29.529Z,96965.09
2018-07-23T15:11:23.800Z,96957.03
2018-07-23T15:16:18.381Z,96950.89
2018-07-23T15:21:12.877Z,96956.55
2018-07-23T15:26:07.401Z,96946.78
2018-07-23T15:31:01.842Z,96950.98
2018-07-23T15:35:56.337Z,96938.70
2018-07-23T15:40:50.884Z,96950.61
2018-07-23T15:45:46.950Z,96945.86
2018-07-23T15:50:42.686Z,96950.89
2018-07-23T15:55:37.136Z,96946.61
2018-07-23T16:00:31.596Z,96938.70
2018-07-23T16:05:26.087Z,96946.21
2018-07-23T16:10:20.495Z,96947.87
2018-07-23T16:15:14.932Z,96948.40
2018-07-23T16:20:09.363Z,96947.89
2018-07-23T16:25:03.598Z,96949.41
2018-07-23T16:29:58.332Z,96941.93
2018-07-23T16:34:52.796Z,96935.02
2018-07-23T16:39:47.336Z,96941.72
2018-07-23T16:44:42.078Z,96933.77
2018-07-23T16:49:36.742Z,96939.86
2018-07-23T16:54:31.341Z,96933.54
2018-07-23T16:59:26.196Z,96937.12
2018-07-23T17:04:20.893Z,96940.84
2018-07-23T17:09:15.540Z,96941.21
2018-07-23T17:14:10.400Z,96949.50
2018-07-23T17:19:05.081Z,96945.75
2018-07-23T17:23:59.895Z,96952.25
2018-07-23T17:28:54.713Z,96947.14
2018-07-23T17:33:49.525Z,96945.84
2018-07-23T17:38:44.210Z,96944.06
2018-07-23T17:43:38.728Z,96938.29
2018-07-23T17:48:33.768Z,96930.13
2018-07-23T17:53:28.457Z,96931.66
2018-07-23T17:58:23.033Z,96934.53
2018-07-23T18:03:17.684Z,96937.85
2018-07-23T18:08:12.339Z,96941.52
2018-07-23T18:13:07.233Z,96945.30
2018-07-23T18:18:01.820Z,96946.28
2018-07-23T18:22:56.407Z,96945.94
2018-07-23T18:27:51.018Z,96951.65
2018-07-23T18:32:45.576Z,96952.27
2018-07-23T18:37:40.320Z,96951.47
2018-07-23T18:42:35.015Z,96958.14
2018-07-23T18:47:29.565Z,96964.44
2018-07-23T18:52:24.951Z,96966.15
2018-07-23T18:57:19.790Z,96972.18
2018-07-23T19:02:15.794Z,96979.59
2018-07-23T19:07:10.818Z,96982.69
2018-07-23T19:12:05.512Z,96983.66
2018-07-23T19:17:01.058Z,96981.50
2018-07-23T19:21:55.693Z,96996.81
2018-07-23T19:26:50.356Z,96993.55
2018-07-23T19:31:44.700Z,96998.17
2018-07-23T19:36:39.353Z,97001.70
2018-07-23T19:41:33.981Z,97010.81
2018-07-23T19:46:28.544Z,97012.61
2018-07-23T19:51:23.328Z,97014.28
2018-07-23T19:56:17.968Z,97019.06
2018-07-23T20:01:12.710Z,97020.08
2018-07-23T20:06:07.322Z,97023.41
2018-07-23T20:11:02.104Z,97034.12
2018-07-23T20:15:57.128Z,97020.79
2018-07-23T20:20:51.708Z,97021.13
2018-07-23T20:25:46.382Z,97021.87
2018-07-23T20:30:40.957Z,97017.14
2018-07-23T20:35:35.569Z,97019.91
2018-07-23T20:40:30.230Z,97022.91
2018-07-23T20:45:24.946Z,97023.23
2018-07-23T20:50:19.552Z,97016.16
2018-07-23T20:55:14.355Z,97016.02
2018-07-23T21:00:09.122Z,97019.37
2018-07-23T21:05:03.742Z,97016.48
2018-07-23T21:09:58.025Z,97026.20
2018-07-23T21:14:52.644Z,97024.12
2018-07-23T21:19:47.343Z,97020.30
2018-07-23T21:24:41.862Z,97017.45
2018-07-23T21:29:36.388Z,97016.70
2018-07-23T21:34:30.987Z,97024.00
2018-07-23T21:39:25.548Z,97023.00
2018-07-23T21:44:20.142Z,97018.50
2018-07-23T21:49:14.712Z,97018.38
2018-07-23T21:54:09.372Z,97013.33
2018-07-23T21:59:03.951Z,97021.34
2018-07-23T22:03:58.508Z,97016.81
2018-07-23T22:08:55.244Z,97023.05
2018-07-23T22:13:49.821Z,97021.55
2018-07-23T22:18:44.391Z,97016.45
2018-07-23T22:23:38.947Z,97009.77
2018-07-23T22:28:33.641Z,97014.99
2018-07-23T22:33:28.472Z,97020.16
2018-07-23T22:38:23.120Z,97010.44
2018-07-23T22:43:18.021Z,97000.34
2018-07-23T22:48:12.654Z,97012.55
2018-07-23T22:53:07.277Z,97007.30
2018-07-23T22:58:01.851Z,97008.27
2018-07-23T23:02:56.449Z,96997.80
2018-07-23T23:07:51.060Z,96996.58
2018-07-23T23:12:45.652Z,96989.95
2018-07-23T23:17:40.448Z,96986.59
2018-07-23T23:22:35.016Z,96975.72
2018-07-23T23:27:29.614Z,96982.95
2018-07-23T23:32:24.585Z,96968.79
2018-07-23T23:37:19.183Z,96975.50
2018-07-23T23:42:13.937Z,96971.22
2018-07-23T23:47:08.528Z,96971.52
2018-07-23T23:52:03.102Z,96967.79
2018-07-23T23:56:57.635Z,96973.54
